Pickwick Observed Data For Previous 48 Hours

Caption
Day and Hour Reservoir Elevation (behind dam)* Tailwater Elevation (below dam)* Average Hourly Discharge*
12/10/2018 1 AM CST 411.05 372.89 132,793
12/10/2018 2 AM CST 411.06 372.91 133,071
12/10/2018 3 AM CST 411.07 372.91 133,012
12/10/2018 4 AM CST 411.08 372.91 133,147
12/10/2018 5 AM CST 411.08 372.91 133,142
12/10/2018 6 AM CST 411.07 372.96 133,119
12/10/2018 7 AM CST 411.08 372.93 133,056
12/10/2018 8 AM CST 411.09 372.95 133,024
12/10/2018 9 AM CST 411.10 372.93 133,226
12/10/2018 10 AM CST 411.11 372.95 133,206
12/10/2018 11 AM CST 411.13 372.95 133,568
12/10/2018 12 PM CST 411.14 372.94 133,545
12/10/2018 1 PM CST 411.10 373.13 136,982
12/10/2018 2 PM CST 411.11 373.23 139,790
12/10/2018 3 PM CST 411.07 373.27 139,614
12/10/2018 4 PM CST 411.12 373.36 139,536
12/10/2018 5 PM CST 411.16 373.35 140,045
12/10/2018 6 PM CST 411.19 373.40 140,235
12/10/2018 7 PM CST 411.21 373.43 140,515
12/10/2018 8 PM CST 411.23 373.44 140,748
12/10/2018 9 PM CST 411.26 373.49 140,921
12/10/2018 10 PM CST 411.32 373.52 141,347
12/10/2018 11 PM CST 411.34 373.55 141,788
12/11/2018 12 AM CST 411.37 373.57 142,029
12/11/2018 1 AM CST 411.39 373.61 142,165
12/11/2018 2 AM CST 411.42 373.63 142,612
12/11/2018 3 AM CST 411.44 373.66 142,713
12/11/2018 4 AM CST 411.46 373.68 142,940
12/11/2018 5 AM CST 411.48 373.71 142,972
12/11/2018 6 AM CST 411.49 373.74 143,098
12/11/2018 7 AM CST 411.48 373.77 143,110
12/11/2018 8 AM CST 411.55 373.79 143,305
12/11/2018 9 AM CST 411.57 373.80 143,596
12/11/2018 10 AM CST 411.60 373.82 143,835
12/11/2018 11 AM CST 411.61 373.84 143,985
12/11/2018 12 PM CST 411.64 373.89 144,094
12/11/2018 1 PM CST 411.63 373.93 144,162
12/11/2018 2 PM CST 411.66 373.93 144,374
12/11/2018 3 PM CST 411.67 373.93 144,446
12/11/2018 4 PM CST 411.67 373.94 144,566
12/11/2018 5 PM CST 411.69 373.98 144,717
12/11/2018 6 PM CST 411.71 374.00 144,860
12/11/2018 7 PM CST 411.73 374.00 144,969
12/11/2018 8 PM CST 411.74 374.00 145,106
12/11/2018 9 PM CST 411.76 374.02 145,305
12/11/2018 10 PM CST 411.75 374.08 145,224
12/11/2018 11 PM CST 411.77 374.06 145,234
12/12/2018 12 AM CST 411.79 374.06 145,582
12/12/2018 1 AM CST 411.80 374.08 145,645

Elevations are in feet above sea level. Discharges are in cubic feet per second and are reported at the end of the hour.